createdAt,value
2023-04-30T00:00:17.411Z,22.28
2023-04-30T00:01:17.388Z,22.30
2023-04-30T00:02:17.430Z,22.32
2023-04-30T00:03:17.477Z,22.34
2023-04-30T00:04:17.453Z,22.34
2023-04-30T00:05:17.402Z,22.35
2023-04-30T00:06:17.392Z,22.36
2023-04-30T00:07:17.396Z,22.37
2023-04-30T00:08:17.404Z,22.36
2023-04-30T00:09:17.440Z,22.37
2023-04-30T00:10:17.410Z,22.36
2023-04-30T00:11:17.430Z,22.37
2023-04-30T00:12:17.435Z,22.37
2023-04-30T00:13:17.484Z,22.38
2023-04-30T00:14:17.511Z,22.37
2023-04-30T00:15:17.468Z,22.37
2023-04-30T00:16:17.520Z,22.37
2023-04-30T00:17:17.499Z,22.38
2023-04-30T00:18:17.512Z,22.37
2023-04-30T00:19:17.564Z,22.37
2023-04-30T00:20:17.537Z,22.37
2023-04-30T00:21:17.549Z,22.37
2023-04-30T00:22:17.559Z,22.37
2023-04-30T00:23:17.577Z,22.37
2023-04-30T00:24:17.634Z,22.37
2023-04-30T00:25:16.655Z,22.37
2023-04-30T00:26:17.631Z,22.37
2023-04-30T00:27:17.653Z,22.37
2023-04-30T00:28:17.664Z,22.36
2023-04-30T00:29:17.762Z,22.37
2023-04-30T00:30:17.687Z,22.37
2023-04-30T00:31:17.700Z,22.36
2023-04-30T00:32:17.871Z,22.36
2023-04-30T00:33:17.739Z,22.36
2023-04-30T00:34:17.806Z,22.36
2023-04-30T00:35:17.764Z,22.36
2023-04-30T00:36:17.764Z,22.36
2023-04-30T00:37:17.791Z,22.37
2023-04-30T00:38:17.829Z,22.36
2023-04-30T00:39:17.848Z,22.36
2023-04-30T00:40:17.842Z,22.36
2023-04-30T00:41:17.875Z,22.36
2023-04-30T00:42:17.864Z,22.36
2023-04-30T00:43:17.874Z,22.35
2023-04-30T00:44:17.920Z,22.36
2023-04-30T00:45:17.943Z,22.35
2023-04-30T00:46:17.954Z,22.36
2023-04-30T00:47:17.938Z,22.36
2023-04-30T00:48:17.962Z,22.35
2023-04-30T00:49:18.004Z,22.35
2023-04-30T00:50:18.075Z,22.36
2023-04-30T00:51:18.010Z,22.35
2023-04-30T00:52:18.040Z,22.36
2023-04-30T00:53:18.039Z,22.35
2023-04-30T00:54:18.092Z,22.35
2023-04-30T00:55:18.077Z,22.34
2023-04-30T00:56:18.096Z,22.35
2023-04-30T00:57:18.104Z,22.34
2023-04-30T00:58:18.116Z,22.34
2023-04-30T00:59:18.167Z,22.34
2023-04-30T01:00:18.151Z,22.34
2023-04-30T01:01:18.237Z,22.34
2023-04-30T01:02:18.296Z,22.34
2023-04-30T01:03:18.257Z,22.35
2023-04-30T01:04:18.229Z,22.34
2023-04-30T01:05:18.231Z,22.34
2023-04-30T01:06:18.306Z,22.34
2023-04-30T01:07:18.315Z,22.34
2023-04-30T01:08:18.289Z,22.34
2023-04-30T01:09:18.314Z,22.34
2023-04-30T01:10:18.333Z,22.33
2023-04-30T01:11:18.360Z,22.33
2023-04-30T01:12:18.410Z,22.34
2023-04-30T01:13:18.378Z,22.34
2023-04-30T01:14:18.399Z,22.34
2023-04-30T01:15:18.421Z,22.33
2023-04-30T01:16:18.499Z,22.34
2023-04-30T01:17:18.518Z,22.33
2023-04-30T01:18:18.596Z,22.33
2023-04-30T01:19:18.498Z,22.34
2023-04-30T01:20:18.506Z,22.34
2023-04-30T01:21:18.526Z,22.34
2023-04-30T01:22:18.585Z,22.34
2023-04-30T01:23:18.611Z,22.33
2023-04-30T01:24:18.598Z,22.34
2023-04-30T01:25:18.618Z,22.33
2023-04-30T01:26:18.632Z,22.33
2023-04-30T01:27:18.725Z,22.34
2023-04-30T01:28:18.658Z,22.33
2023-04-30T01:29:18.718Z,22.33
2023-04-30T01:30:18.712Z,22.34
2023-04-30T01:31:18.783Z,22.33
2023-04-30T01:32:18.739Z,22.33
2023-04-30T01:33:18.813Z,22.33
2023-04-30T01:34:18.789Z,22.33
2023-04-30T01:35:18.803Z,22.33
2023-04-30T01:36:18.824Z,22.33
2023-04-30T01:37:18.844Z,22.32
2023-04-30T01:38:18.902Z,22.33
2023-04-30T01:39:18.880Z,22.33
2023-04-30T01:40:18.988Z,22.33
2023-04-30T01:41:18.914Z,22.33
2023-04-30T01:42:18.938Z,22.33
2023-04-30T01:43:19.009Z,22.32
2023-04-30T01:44:18.968Z,22.32
2023-04-30T01:45:19.006Z,22.32
2023-04-30T01:46:19.118Z,22.32
2023-04-30T01:47:19.036Z,22.32
2023-04-30T01:48:19.082Z,22.33
2023-04-30T01:49:19.132Z,22.32
2023-04-30T01:50:19.084Z,22.32
2023-04-30T01:51:19.110Z,22.32
2023-04-30T01:52:19.163Z,22.32
2023-04-30T01:53:19.153Z,22.32
2023-04-30T01:54:19.161Z,22.32
2023-04-30T01:55:19.188Z,22.32
2023-04-30T01:56:19.206Z,22.32
2023-04-30T01:57:19.233Z,22.32
2023-04-30T01:58:19.236Z,22.32
2023-04-30T01:59:19.264Z,22.31
2023-04-30T02:00:19.282Z,22.32
2023-04-30T02:01:19.326Z,22.32
2023-04-30T02:02:19.392Z,22.31
2023-04-30T02:03:19.474Z,22.32
2023-04-30T02:04:19.391Z,22.32
2023-04-30T02:05:19.409Z,22.32
2023-04-30T02:06:19.454Z,22.32
2023-04-30T02:07:19.433Z,22.31
2023-04-30T02:08:19.452Z,22.31
2023-04-30T02:09:19.491Z,22.32
2023-04-30T02:10:19.512Z,22.31
2023-04-30T02:11:19.530Z,22.32
2023-04-30T02:12:19.540Z,22.32
2023-04-30T02:13:19.557Z,22.31
2023-04-30T02:14:19.608Z,22.32
2023-04-30T02:15:19.602Z,22.32
2023-04-30T02:16:19.726Z,22.31
2023-04-30T02:17:19.649Z,22.32
2023-04-30T02:18:19.792Z,22.31
2023-04-30T02:19:19.774Z,22.31
2023-04-30T02:20:19.712Z,22.31
2023-04-30T02:21:19.747Z,22.31
2023-04-30T02:22:19.748Z,22.30
2023-04-30T02:23:19.766Z,22.31
2023-04-30T02:24:19.808Z,22.31
2023-04-30T02:25:19.834Z,22.31
2023-04-30T02:26:19.836Z,22.31
2023-04-30T02:27:19.850Z,22.31
2023-04-30T02:28:19.867Z,22.31
2023-04-30T02:29:19.918Z,22.30
2023-04-30T02:30:19.904Z,22.30
2023-04-30T02:31:19.968Z,22.31
2023-04-30T02:32:19.950Z,22.30
2023-04-30T02:33:19.980Z,22.31
2023-04-30T02:34:20.050Z,22.30
2023-04-30T02:35:20.001Z,22.30
2023-04-30T02:36:20.081Z,22.30
2023-04-30T02:37:20.080Z,22.30
2023-04-30T02:38:20.072Z,22.30
2023-04-30T02:39:20.092Z,22.30
2023-04-30T02:40:20.119Z,22.30
2023-04-30T02:41:20.162Z,22.30
2023-04-30T02:42:20.148Z,22.30
2023-04-30T02:43:20.166Z,22.30
2023-04-30T02:44:20.211Z,22.29
2023-04-30T02:45:20.217Z,22.29
2023-04-30T02:46:20.366Z,22.29
2023-04-30T02:47:20.288Z,22.30
2023-04-30T02:48:20.294Z,22.29
2023-04-30T02:49:20.313Z,22.29
2023-04-30T02:50:20.333Z,22.29
2023-04-30T02:51:20.393Z,22.29
2023-04-30T02:52:20.396Z,22.28
2023-04-30T02:53:20.444Z,22.29
2023-04-30T02:54:20.511Z,22.29
2023-04-30T02:55:20.460Z,22.29
2023-04-30T02:56:20.520Z,22.29
2023-04-30T02:57:20.502Z,22.28
2023-04-30T02:58:20.531Z,22.29
2023-04-30T02:59:20.543Z,22.28
2023-04-30T03:00:20.580Z,22.28
2023-04-30T03:01:20.750Z,22.28
2023-04-30T03:02:20.666Z,22.29
2023-04-30T03:03:20.962Z,22.28
2023-04-30T03:04:20.674Z,22.28
2023-04-30T03:05:20.683Z,22.29
2023-04-30T03:06:20.868Z,22.29
2023-04-30T03:07:20.708Z,22.28
2023-04-30T03:08:20.734Z,22.28
2023-04-30T03:09:20.789Z,22.28
2023-04-30T03:10:20.765Z,22.28
2023-04-30T03:11:20.788Z,22.28
2023-04-30T03:12:20.812Z,22.28
2023-04-30T03:13:20.818Z,22.28
2023-04-30T03:14:20.829Z,22.28
2023-04-30T03:15:20.871Z,22.28
2023-04-30T03:16:20.968Z,22.28
2023-04-30T03:17:20.944Z,22.27
2023-04-30T03:18:20.925Z,22.28
2023-04-30T03:19:20.964Z,22.28
2023-04-30T03:20:20.984Z,22.28
2023-04-30T03:21:20.984Z,22.28
2023-04-30T03:22:21.002Z,22.28
2023-04-30T03:23:21.030Z,22.28
2023-04-30T03:24:21.086Z,22.27
2023-04-30T03:25:21.088Z,22.27
2023-04-30T03:26:21.111Z,22.27
2023-04-30T03:27:21.104Z,22.27
2023-04-30T03:28:21.138Z,22.27
2023-04-30T03:29:21.134Z,22.27
2023-04-30T03:30:21.163Z,22.27
2023-04-30T03:31:21.291Z,22.27
2023-04-30T03:32:21.354Z,22.26
2023-04-30T03:33:21.257Z,22.26
2023-04-30T03:34:21.301Z,22.27
2023-04-30T03:35:21.265Z,22.27
2023-04-30T03:36:21.332Z,22.27
2023-04-30T03:37:21.315Z,22.27
2023-04-30T03:38:21.360Z,22.27
2023-04-30T03:39:21.353Z,22.26
2023-04-30T03:40:21.378Z,22.26
2023-04-30T03:41:21.426Z,22.27
2023-04-30T03:42:21.423Z,22.27
2023-04-30T03:43:21.471Z,22.26
2023-04-30T03:44:21.506Z,22.26
2023-04-30T03:45:21.492Z,22.26
2023-04-30T03:46:21.571Z,22.27
2023-04-30T03:47:21.523Z,22.26
2023-04-30T03:48:21.605Z,22.26
2023-04-30T03:49:21.569Z,22.26
2023-04-30T03:50:21.593Z,22.26
2023-04-30T03:51:21.650Z,22.26
2023-04-30T03:52:21.635Z,22.26
2023-04-30T03:53:21.677Z,22.26
2023-04-30T03:54:21.768Z,22.25
2023-04-30T03:55:21.694Z,22.25
2023-04-30T03:56:21.716Z,22.26
2023-04-30T03:57:21.775Z,22.26
2023-04-30T03:58:21.790Z,22.25
2023-04-30T03:59:21.789Z,22.25
2023-04-30T04:00:21.818Z,22.25
2023-04-30T04:01:21.885Z,22.25
2023-04-30T04:02:21.960Z,22.25
2023-04-30T04:03:21.888Z,22.26
2023-04-30T04:04:22.061Z,22.25
2023-04-30T04:05:21.930Z,22.25
2023-04-30T04:06:22.119Z,22.25
2023-04-30T04:07:21.992Z,22.25
2023-04-30T04:08:22.004Z,22.25
2023-04-30T04:09:22.058Z,22.24
2023-04-30T04:10:22.062Z,22.24
2023-04-30T04:11:22.069Z,22.24
2023-04-30T04:12:22.096Z,22.25
2023-04-30T04:13:22.142Z,22.25
2023-04-30T04:14:22.169Z,22.24
2023-04-30T04:15:22.184Z,22.25
2023-04-30T04:16:22.245Z,22.25
2023-04-30T04:17:22.244Z,22.25
2023-04-30T04:18:22.225Z,22.25
2023-04-30T04:19:22.275Z,22.25
2023-04-30T04:20:22.285Z,22.24
2023-04-30T04:21:22.431Z,22.25
2023-04-30T04:22:22.338Z,22.25
2023-04-30T04:23:22.367Z,22.25
2023-04-30T04:24:22.390Z,22.25
2023-04-30T04:25:22.420Z,22.25
2023-04-30T04:26:22.478Z,22.24
2023-04-30T04:27:22.481Z,22.24
2023-04-30T04:28:22.499Z,22.25
2023-04-30T04:29:22.560Z,22.24
2023-04-30T04:30:22.560Z,22.24
2023-04-30T04:31:22.804Z,22.24
2023-04-30T04:32:22.780Z,22.24
2023-04-30T04:33:22.657Z,22.25
2023-04-30T04:34:22.653Z,22.25
2023-04-30T04:35:22.687Z,22.24
2023-04-30T04:36:22.713Z,22.24
2023-04-30T04:37:22.724Z,22.24
2023-04-30T04:38:22.756Z,22.24
2023-04-30T04:39:22.949Z,22.25
2023-04-30T04:40:22.784Z,22.24
2023-04-30T04:41:22.801Z,22.24
2023-04-30T04:42:22.826Z,22.24
2023-04-30T04:43:22.846Z,22.24
2023-04-30T04:44:22.869Z,22.25
2023-04-30T04:45:22.922Z,22.24
2023-04-30T04:46:23.025Z,22.24
2023-04-30T04:47:22.999Z,22.24
2023-04-30T04:48:22.962Z,22.24
2023-04-30T04:49:22.982Z,22.24
2023-04-30T04:50:23.026Z,22.24
2023-04-30T04:51:23.031Z,22.24
2023-04-30T04:52:23.058Z,22.24
2023-04-30T04:53:23.079Z,22.24
2023-04-30T04:54:23.130Z,22.24
2023-04-30T04:55:23.120Z,22.25
2023-04-30T04:56:23.148Z,22.24
2023-04-30T04:57:23.168Z,22.24
2023-04-30T04:58:23.188Z,22.24
2023-04-30T04:59:23.208Z,22.24
2023-04-30T05:00:23.237Z,22.24
2023-04-30T05:01:23.302Z,22.25
2023-04-30T05:02:23.327Z,22.24
2023-04-30T05:03:23.437Z,22.24
2023-04-30T05:04:23.323Z,22.24
2023-04-30T05:05:23.357Z,22.24
2023-04-30T05:06:23.456Z,22.24
2023-04-30T05:07:23.408Z,22.24
2023-04-30T05:08:23.428Z,22.24
2023-04-30T05:09:23.448Z,22.24
2023-04-30T05:10:23.479Z,22.24
2023-04-30T05:11:23.506Z,22.25
2023-04-30T05:12:23.526Z,22.24
2023-04-30T05:13:23.550Z,22.24
2023-04-30T05:14:23.575Z,22.24
2023-04-30T05:15:23.605Z,22.24
2023-04-30T05:16:23.697Z,22.24
2023-04-30T05:17:23.826Z,22.25
2023-04-30T05:18:23.679Z,22.23
2023-04-30T05:19:23.704Z,22.24
2023-04-30T05:20:23.729Z,22.25
2023-04-30T05:21:23.753Z,22.24
2023-04-30T05:22:23.781Z,22.25
2023-04-30T05:23:23.841Z,22.25
2023-04-30T05:24:23.841Z,22.24
2023-04-30T05:25:23.861Z,22.24
2023-04-30T05:26:23.886Z,22.24
2023-04-30T05:27:23.918Z,22.24
2023-04-30T05:28:23.944Z,22.24
2023-04-30T05:29:23.973Z,22.25
2023-04-30T05:30:24.011Z,22.25
2023-04-30T05:31:24.037Z,22.25
2023-04-30T05:32:24.109Z,22.24
2023-04-30T05:33:24.274Z,22.24
2023-04-30T05:34:24.093Z,22.25
2023-04-30T05:35:24.119Z,22.25
2023-04-30T05:36:24.153Z,22.25
2023-04-30T05:37:24.182Z,22.25
2023-04-30T05:38:24.189Z,22.25
2023-04-30T05:39:24.205Z,22.25
2023-04-30T05:40:24.228Z,22.26
2023-04-30T05:41:24.249Z,22.26
2023-04-30T05:42:24.271Z,22.26
2023-04-30T05:43:24.296Z,22.26
2023-04-30T05:44:24.307Z,22.27
2023-04-30T05:45:24.357Z,22.27
2023-04-30T05:46:24.441Z,22.27
2023-04-30T05:47:24.380Z,22.27
2023-04-30T05:48:24.390Z,22.28
2023-04-30T05:49:24.445Z,22.27
2023-04-30T05:50:24.446Z,22.27
2023-04-30T05:51:24.451Z,22.28
2023-04-30T05:52:24.486Z,22.28
2023-04-30T05:53:24.500Z,22.28
2023-04-30T05:54:24.515Z,22.28
2023-04-30T05:55:24.544Z,22.28
2023-04-30T05:56:24.561Z,22.29
2023-04-30T05:57:24.600Z,22.29
2023-04-30T05:58:24.621Z,22.28
2023-04-30T05:59:24.639Z,22.29
2023-04-30T06:00:24.665Z,22.29
2023-04-30T06:01:24.684Z,22.29
2023-04-30T06:02:24.847Z,22.28
2023-04-30T06:03:24.720Z,22.29
2023-04-30T06:04:24.751Z,22.29
2023-04-30T06:05:24.838Z,22.29
2023-04-30T06:06:24.814Z,22.30
2023-04-30T06:07:24.807Z,22.29
2023-04-30T06:08:24.835Z,22.29
2023-04-30T06:09:24.835Z,22.29
2023-04-30T06:10:24.860Z,22.30
2023-04-30T06:11:24.880Z,22.30
2023-04-30T06:12:24.903Z,22.30
2023-04-30T06:13:24.918Z,22.31
2023-04-30T06:14:24.954Z,22.31
2023-04-30T06:15:24.955Z,22.30
2023-04-30T06:16:25.032Z,22.30
2023-04-30T06:17:25.030Z,22.31
2023-04-30T06:18:24.999Z,22.32
2023-04-30T06:19:25.019Z,22.32
2023-04-30T06:20:25.045Z,22.32
2023-04-30T06:21:25.080Z,22.32
2023-04-30T06:22:25.063Z,22.33
2023-04-30T06:23:25.074Z,22.32
2023-04-30T06:24:25.081Z,22.33
2023-04-30T06:25:25.093Z,22.32
2023-04-30T06:26:25.111Z,22.33
2023-04-30T06:27:25.128Z,22.33
2023-04-30T06:28:25.147Z,22.33
2023-04-30T06:29:25.156Z,22.33
2023-04-30T06:30:25.166Z,22.34
2023-04-30T06:31:25.227Z,22.33
2023-04-30T06:32:25.217Z,22.34
2023-04-30T06:33:25.222Z,22.34
2023-04-30T06:34:25.225Z,22.34
2023-04-30T06:35:25.229Z,22.34
2023-04-30T06:36:25.264Z,22.34
2023-04-30T06:37:25.287Z,22.34
2023-04-30T06:38:25.268Z,22.34
2023-04-30T06:39:25.280Z,22.35
2023-04-30T06:40:25.294Z,22.36
2023-04-30T06:41:25.303Z,22.35
2023-04-30T06:42:25.311Z,22.35
2023-04-30T06:43:25.329Z,22.36
2023-04-30T06:44:25.338Z,22.35
2023-04-30T06:45:25.358Z,22.36
2023-04-30T06:46:25.383Z,22.37
2023-04-30T06:47:25.423Z,22.37
2023-04-30T06:48:25.390Z,22.37
2023-04-30T06:49:25.410Z,22.37
2023-04-30T06:50:25.413Z,22.37
2023-04-30T06:51:25.425Z,22.38
2023-04-30T06:52:25.442Z,22.38
2023-04-30T06:53:25.470Z,22.38
2023-04-30T06:54:25.455Z,22.39
2023-04-30T06:55:25.473Z,22.39
2023-04-30T06:56:25.481Z,22.39
2023-04-30T06:57:25.502Z,22.40
2023-04-30T06:58:25.513Z,22.41
2023-04-30T06:59:25.513Z,22.41
2023-04-30T07:00:25.533Z,22.42
2023-04-30T07:01:25.559Z,22.42
2023-04-30T07:02:25.645Z,22.41
2023-04-30T07:03:25.714Z,22.42
2023-04-30T07:04:25.545Z,22.42
2023-04-30T07:05:25.557Z,22.42
2023-04-30T07:06:25.603Z,22.42
2023-04-30T07:07:25.558Z,22.42
2023-04-30T07:08:25.567Z,22.43
2023-04-30T07:09:25.606Z,22.42
2023-04-30T07:10:25.604Z,22.43
2023-04-30T07:11:25.598Z,22.43
2023-04-30T07:12:25.591Z,22.42
2023-04-30T07:13:25.607Z,22.42
2023-04-30T07:14:25.601Z,22.42
2023-04-30T07:15:25.609Z,22.42
2023-04-30T07:16:25.707Z,22.41
2023-04-30T07:17:27.578Z,22.42
2023-04-30T07:18:25.617Z,22.41
2023-04-30T07:19:25.614Z,22.43
2023-04-30T07:20:25.632Z,22.42
2023-04-30T07:21:25.592Z,22.43
2023-04-30T07:22:25.593Z,22.43
2023-04-30T07:23:26.205Z,22.44
2023-04-30T07:24:25.884Z,22.43
2023-04-30T07:25:25.857Z,22.43
2023-04-30T07:26:25.827Z,22.44
2023-04-30T07:27:25.831Z,22.44
2023-04-30T07:28:25.838Z,22.44
2023-04-30T07:29:25.860Z,22.45
2023-04-30T07:30:25.929Z,22.44
2023-04-30T07:31:25.898Z,22.45
2023-04-30T07:32:25.855Z,22.45
2023-04-30T07:33:25.889Z,22.45
2023-04-30T07:34:25.848Z,22.45
2023-04-30T07:35:25.855Z,22.45
2023-04-30T07:36:25.872Z,22.45
2023-04-30T07:37:25.865Z,22.45
2023-04-30T07:38:25.861Z,22.45
2023-04-30T07:39:25.869Z,22.45
2023-04-30T07:40:35.454Z,22.46
2023-04-30T07:41:25.893Z,22.45
2023-04-30T07:42:25.860Z,22.45
2023-04-30T07:43:25.862Z,22.45
2023-04-30T07:44:25.848Z,22.46
2023-04-30T07:45:25.841Z,22.46
2023-04-30T07:46:25.903Z,22.46
2023-04-30T07:47:25.952Z,22.46
2023-04-30T07:48:25.822Z,22.47
2023-04-30T07:49:25.809Z,22.47
2023-04-30T07:50:25.806Z,22.48
2023-04-30T07:51:25.797Z,22.47
2023-04-30T07:52:25.777Z,22.48
2023-04-30T07:53:25.778Z,22.48
2023-04-30T07:54:25.769Z,22.48
2023-04-30T07:55:25.771Z,22.48
2023-04-30T07:56:25.761Z,22.48
2023-04-30T07:57:25.786Z,22.48
2023-04-30T07:58:25.757Z,22.48
2023-04-30T07:59:25.751Z,22.49
2023-04-30T08:00:25.735Z,22.48
2023-04-30T08:01:25.723Z,22.48
2023-04-30T08:02:25.741Z,22.48
2023-04-30T08:03:25.801Z,22.48
2023-04-30T08:04:25.846Z,22.48
2023-04-30T08:05:25.705Z,22.48
2023-04-30T08:06:25.730Z,22.48
2023-04-30T08:07:25.677Z,22.49
2023-04-30T08:08:25.671Z,22.49
2023-04-30T08:09:25.664Z,22.49
2023-04-30T08:10:25.660Z,22.49
2023-04-30T08:11:25.662Z,22.48
2023-04-30T08:12:25.654Z,22.49
2023-04-30T08:13:25.724Z,22.49
2023-04-30T08:14:25.654Z,22.49
2023-04-30T08:15:25.626Z,22.49
2023-04-30T08:16:25.642Z,22.48
2023-04-30T08:17:25.706Z,22.48
2023-04-30T08:18:25.616Z,22.49
2023-04-30T08:19:25.611Z,22.49
2023-04-30T08:20:25.604Z,22.49
2023-04-30T08:21:25.600Z,22.49
2023-04-30T08:22:25.587Z,22.50
2023-04-30T08:23:25.576Z,22.50
2023-04-30T08:24:25.569Z,22.51
2023-04-30T08:25:25.568Z,22.51
2023-04-30T08:26:25.564Z,22.51
2023-04-30T08:27:25.590Z,22.52
2023-04-30T08:28:25.553Z,22.52
2023-04-30T08:29:25.572Z,22.52
2023-04-30T08:30:25.537Z,22.52
2023-04-30T08:31:25.554Z,22.53
2023-04-30T08:32:25.650Z,22.52
2023-04-30T08:33:25.546Z,22.54
2023-04-30T08:34:25.500Z,22.54
2023-04-30T08:35:25.503Z,22.54
2023-04-30T08:36:25.490Z,22.54
2023-04-30T08:37:25.479Z,22.54
2023-04-30T08:38:27.629Z,22.54
2023-04-30T08:39:25.479Z,22.55
2023-04-30T08:40:43.605Z,22.55
2023-04-30T08:41:25.459Z,22.55
2023-04-30T08:42:25.454Z,22.55
2023-04-30T08:43:25.451Z,22.56
2023-04-30T08:44:25.436Z,22.56
2023-04-30T08:45:25.457Z,22.57
2023-04-30T08:46:25.435Z,22.56
2023-04-30T08:47:25.474Z,22.57
2023-04-30T08:48:25.412Z,22.58
2023-04-30T08:49:25.410Z,22.56
2023-04-30T08:50:25.402Z,22.56
2023-04-30T08:51:25.400Z,22.56
2023-04-30T08:52:25.389Z,22.56
2023-04-30T08:53:25.386Z,22.56
2023-04-30T08:54:25.382Z,22.57
2023-04-30T08:55:25.365Z,22.57
2023-04-30T08:56:25.695Z,22.57
2023-04-30T08:57:25.352Z,22.57
2023-04-30T08:58:25.342Z,22.57
2023-04-30T08:59:25.333Z,22.57
2023-04-30T09:00:25.320Z,22.58
2023-04-30T09:01:25.399Z,22.59
2023-04-30T09:02:25.384Z,22.59
2023-04-30T09:03:25.393Z,22.60
2023-04-30T09:04:25.295Z,22.60
2023-04-30T09:05:25.300Z,22.60
2023-04-30T09:06:25.376Z,22.61
2023-04-30T09:07:25.283Z,22.61
2023-04-30T09:08:25.270Z,22.61
2023-04-30T09:09:25.262Z,22.60
2023-04-30T09:10:25.263Z,22.60
2023-04-30T09:11:25.264Z,22.60
2023-04-30T09:12:25.246Z,22.59
2023-04-30T09:13:25.241Z,22.59
2023-04-30T09:14:25.236Z,22.60
2023-04-30T09:15:25.264Z,22.59
2023-04-30T09:16:25.477Z,22.59
2023-04-30T09:17:25.292Z,22.59
2023-04-30T09:18:25.212Z,22.60
2023-04-30T09:19:25.206Z,22.59
2023-04-30T09:20:25.196Z,22.60
2023-04-30T09:21:25.179Z,22.60
2023-04-30T09:22:25.171Z,22.61
2023-04-30T09:23:25.161Z,22.60
2023-04-30T09:24:25.171Z,22.60
2023-04-30T09:25:25.156Z,22.59
2023-04-30T09:26:25.161Z,22.59
2023-04-30T09:27:25.146Z,22.59
2023-04-30T09:28:25.136Z,22.59
2023-04-30T09:29:25.125Z,22.58
2023-04-30T09:30:25.118Z,22.59
2023-04-30T09:31:25.158Z,22.58
2023-04-30T09:32:25.153Z,22.60
2023-04-30T09:33:25.121Z,22.60
2023-04-30T09:34:25.091Z,22.61
2023-04-30T09:35:25.086Z,22.61
2023-04-30T09:36:25.071Z,22.61
2023-04-30T09:37:25.069Z,22.61
2023-04-30T09:38:25.064Z,22.61
2023-04-30T09:39:25.047Z,22.61
2023-04-30T09:40:25.058Z,22.61
2023-04-30T09:41:25.056Z,22.62
2023-04-30T09:42:25.049Z,22.62
2023-04-30T09:43:25.056Z,22.62
2023-04-30T09:44:25.057Z,22.63
2023-04-30T09:45:25.110Z,22.63
2023-04-30T09:46:25.084Z,22.63
2023-04-30T09:47:25.118Z,22.63
2023-04-30T09:48:25.132Z,22.63
2023-04-30T09:49:25.148Z,22.64
2023-04-30T09:50:25.116Z,22.63
2023-04-30T09:51:25.126Z,22.63
2023-04-30T09:52:25.118Z,22.64
2023-04-30T09:53:25.136Z,22.64
2023-04-30T09:54:25.132Z,22.65
2023-04-30T09:55:25.156Z,22.64
2023-04-30T09:56:25.161Z,22.65
2023-04-30T09:57:25.160Z,22.65
2023-04-30T09:58:25.173Z,22.65
2023-04-30T09:59:25.184Z,22.65
2023-04-30T10:00:25.206Z,22.66
2023-04-30T10:01:25.262Z,22.66
2023-04-30T10:02:25.278Z,22.66
2023-04-30T10:03:25.234Z,22.65
2023-04-30T10:04:25.358Z,22.65
2023-04-30T10:05:25.272Z,22.65
2023-04-30T10:06:25.318Z,22.66
2023-04-30T10:07:25.269Z,22.66
2023-04-30T10:08:25.274Z,22.65
2023-04-30T10:09:25.283Z,22.66
2023-04-30T10:10:25.320Z,22.65
2023-04-30T10:11:25.319Z,22.66
2023-04-30T10:12:25.328Z,22.67
2023-04-30T10:13:25.346Z,22.67
2023-04-30T10:14:25.364Z,22.67
2023-04-30T10:15:25.381Z,22.68
2023-04-30T10:16:25.471Z,22.68
2023-04-30T10:17:25.441Z,22.68
2023-04-30T10:18:25.445Z,22.68
2023-04-30T10:19:25.463Z,22.68
2023-04-30T10:20:25.465Z,22.69
2023-04-30T10:21:25.625Z,22.69
2023-04-30T10:22:25.516Z,22.69
2023-04-30T10:23:25.549Z,22.69
2023-04-30T10:24:25.553Z,22.70
2023-04-30T10:25:25.557Z,22.69
2023-04-30T10:26:25.568Z,22.69
2023-04-30T10:27:25.610Z,22.69
2023-04-30T10:28:25.602Z,22.69
2023-04-30T10:29:25.609Z,22.69
2023-04-30T10:30:25.611Z,22.69
2023-04-30T10:31:25.651Z,22.70
2023-04-30T10:32:25.693Z,22.70
2023-04-30T10:33:25.831Z,22.70
2023-04-30T10:34:25.694Z,22.71
2023-04-30T10:35:25.710Z,22.71
2023-04-30T10:36:25.731Z,22.70
2023-04-30T10:37:25.852Z,22.71
2023-04-30T10:38:25.764Z,22.71
2023-04-30T10:39:25.794Z,22.71
2023-04-30T10:40:25.797Z,22.71
2023-04-30T10:41:25.821Z,22.71
2023-04-30T10:42:25.813Z,22.72
2023-04-30T10:43:25.854Z,22.71
2023-04-30T10:44:25.873Z,22.72
2023-04-30T10:45:25.872Z,22.72
2023-04-30T10:46:25.974Z,22.71
2023-04-30T10:47:25.943Z,22.71
2023-04-30T10:48:25.972Z,22.71
2023-04-30T10:49:25.914Z,22.71
2023-04-30T10:50:25.927Z,22.72
2023-04-30T10:51:25.941Z,22.72
2023-04-30T10:52:25.964Z,22.73
2023-04-30T10:53:25.998Z,22.73
2023-04-30T10:54:25.986Z,22.73
2023-04-30T10:55:27.416Z,22.73
2023-04-30T10:56:26.004Z,22.74
2023-04-30T10:57:26.008Z,22.73
2023-04-30T10:58:25.990Z,22.74
2023-04-30T10:59:25.984Z,22.74
2023-04-30T11:00:26.005Z,22.74
2023-04-30T11:01:25.981Z,22.75
2023-04-30T11:02:26.058Z,22.76
2023-04-30T11:03:25.961Z,22.76
2023-04-30T11:04:25.979Z,22.76
2023-04-30T11:05:25.955Z,22.76
2023-04-30T11:06:26.081Z,22.75
2023-04-30T11:07:25.937Z,22.74
2023-04-30T11:08:25.923Z,22.74
2023-04-30T11:09:25.940Z,22.75
2023-04-30T11:10:25.943Z,22.75
2023-04-30T11:11:25.915Z,22.75
2023-04-30T11:12:25.898Z,22.75
2023-04-30T11:13:25.887Z,22.76
2023-04-30T11:14:25.880Z,22.75
2023-04-30T11:15:25.903Z,22.76
2023-04-30T11:16:25.901Z,22.76
2023-04-30T11:17:25.877Z,22.77
2023-04-30T11:18:25.886Z,22.76
2023-04-30T11:19:25.837Z,22.77
2023-04-30T11:20:25.840Z,22.77
2023-04-30T11:21:25.836Z,22.77
2023-04-30T11:22:25.829Z,22.78
2023-04-30T11:23:38.401Z,22.78
2023-04-30T11:24:27.558Z,22.78
2023-04-30T11:25:25.836Z,22.79
2023-04-30T11:26:25.804Z,22.79
2023-04-30T11:27:25.789Z,22.80
2023-04-30T11:28:25.787Z,22.80
2023-04-30T11:29:25.851Z,22.80
2023-04-30T11:30:25.781Z,22.79
2023-04-30T11:31:25.919Z,22.81
2023-04-30T11:32:25.810Z,22.80
2023-04-30T11:33:25.759Z,22.81
2023-04-30T11:34:25.746Z,22.80
2023-04-30T11:35:25.738Z,22.81
2023-04-30T11:36:25.727Z,22.80
2023-04-30T11:37:25.734Z,22.80
2023-04-30T11:38:25.726Z,22.80
2023-04-30T11:39:25.713Z,22.80
2023-04-30T11:40:25.714Z,22.79
2023-04-30T11:41:25.726Z,22.80
2023-04-30T11:42:25.691Z,22.80
2023-04-30T11:43:25.703Z,22.80
2023-04-30T11:44:25.686Z,22.80
2023-04-30T11:45:25.679Z,22.80
2023-04-30T11:46:25.710Z,22.80
2023-04-30T11:47:25.694Z,22.80
2023-04-30T11:48:25.660Z,22.80
2023-04-30T11:49:25.649Z,22.80
2023-04-30T11:50:25.643Z,22.80
2023-04-30T11:51:25.634Z,22.80
2023-04-30T11:52:25.633Z,22.80
2023-04-30T11:53:25.622Z,22.80
2023-04-30T11:54:25.619Z,22.80
2023-04-30T11:55:25.637Z,22.80
2023-04-30T11:56:25.787Z,22.81
2023-04-30T11:57:25.621Z,22.80
2023-04-30T11:58:25.592Z,22.80
2023-04-30T11:59:25.584Z,22.80
2023-04-30T12:00:25.583Z,22.80
2023-04-30T12:01:25.572Z,22.81
2023-04-30T12:02:25.664Z,22.80
2023-04-30T12:03:25.629Z,22.81
2023-04-30T12:04:25.571Z,22.81
2023-04-30T12:05:25.541Z,22.81
2023-04-30T12:06:25.663Z,22.81
2023-04-30T12:07:25.523Z,22.82
2023-04-30T12:08:25.523Z,22.81
2023-04-30T12:09:25.510Z,22.81
2023-04-30T12:10:25.509Z,22.81
2023-04-30T12:11:25.756Z,22.82
2023-04-30T12:12:25.494Z,22.82
2023-04-30T12:13:25.502Z,22.82
2023-04-30T12:14:25.473Z,22.82
2023-04-30T12:15:25.469Z,22.83
2023-04-30T12:16:25.479Z,22.83
2023-04-30T12:17:25.487Z,22.82
2023-04-30T12:18:25.443Z,22.83
2023-04-30T12:19:25.528Z,22.83
2023-04-30T12:20:25.486Z,22.83
2023-04-30T12:21:25.553Z,22.83
2023-04-30T12:22:25.604Z,22.83
2023-04-30T12:23:25.671Z,22.83
2023-04-30T12:24:25.729Z,22.83
2023-04-30T12:25:25.794Z,22.83
2023-04-30T12:26:25.846Z,22.83
2023-04-30T12:27:25.909Z,22.83
2023-04-30T12:28:25.962Z,22.83
2023-04-30T12:29:26.044Z,22.83
2023-04-30T12:30:26.062Z,22.83
2023-04-30T12:31:26.175Z,22.84
2023-04-30T12:32:26.304Z,22.84
2023-04-30T12:33:26.260Z,22.84
2023-04-30T12:34:26.320Z,22.85
2023-04-30T12:35:26.382Z,22.84
2023-04-30T12:36:26.449Z,22.85
2023-04-30T12:37:26.503Z,22.84
2023-04-30T12:38:26.573Z,22.84
2023-04-30T12:39:26.633Z,22.85
2023-04-30T12:40:26.708Z,22.84
2023-04-30T12:41:26.763Z,22.85
2023-04-30T12:42:26.826Z,22.84
2023-04-30T12:43:26.892Z,22.85
2023-04-30T12:44:26.953Z,22.84
2023-04-30T12:45:27.036Z,22.85
2023-04-30T12:46:27.138Z,22.85
2023-04-30T12:47:27.180Z,22.85
2023-04-30T12:48:27.193Z,22.85
2023-04-30T12:49:27.260Z,22.84
2023-04-30T12:50:27.290Z,22.85
2023-04-30T12:51:27.355Z,22.85
2023-04-30T12:52:27.425Z,22.86